sensor_id;sensor_type;location;lat;lon;timestamp;pressure;altitude;pressure_sealevel;temperature;humidity
56084;BME280;41958;52.416;13.428;2022-10-16T00:01:20;100578.28;;;13.76;100.00
56084;BME280;41958;52.416;13.428;2022-10-16T00:03:47;100584.41;;;13.81;100.00
56084;BME280;41958;52.416;13.428;2022-10-16T00:06:13;100583.94;;;13.79;100.00
56084;BME280;41958;52.416;13.428;2022-10-16T00:08:39;100594.50;;;13.86;100.00
56084;BME280;41958;52.416;13.428;2022-10-16T00:11:08;100599.00;;;13.91;100.00
56084;BME280;41958;52.416;13.428;2022-10-16T00:13:35;100599.81;;;13.91;100.00
56084;BME280;41958;52.416;13.428;2022-10-16T00:16:01;100594.19;;;13.91;100.00
56084;BME280;41958;52.416;13.428;2022-10-16T00:18:28;100596.28;;;13.98;100.00
56084;BME280;41958;52.416;13.428;2022-10-16T00:20:54;100596.75;;;14.00;100.00
56084;BME280;41958;52.416;13.428;2022-10-16T00:23:19;100589.59;;;14.06;100.00
56084;BME280;41958;52.416;13.428;2022-10-16T00:25:44;100592.09;;;14.11;100.00
56084;BME280;41958;52.416;13.428;2022-10-16T00:28:10;100596.91;;;14.11;100.00
56084;BME280;41958;52.416;13.428;2022-10-16T00:30:39;100612.63;;;14.15;100.00
56084;BME280;41958;52.416;13.428;2022-10-16T00:33:04;100605.00;;;14.16;100.00
56084;BME280;41958;52.416;13.428;2022-10-16T00:35:30;100613.06;;;14.18;100.00
56084;BME280;41958;52.416;13.428;2022-10-16T00:37:56;100616.31;;;14.20;100.00
56084;BME280;41958;52.416;13.428;2022-10-16T00:40:21;100622.38;;;14.22;100.00
56084;BME280;41958;52.416;13.428;2022-10-16T00:42:46;100615.66;;;14.30;100.00
56084;BME280;41958;52.416;13.428;2022-10-16T00:45:11;100618.88;;;14.28;100.00
56084;BME280;41958;52.416;13.428;2022-10-16T00:47:40;100608.81;;;14.27;100.00
56084;BME280;41958;52.416;13.428;2022-10-16T00:50:09;100618.91;;;14.32;100.00
56084;BME280;41958;52.416;13.428;2022-10-16T00:52:36;100608.09;;;14.34;100.00
56084;BME280;41958;52.416;13.428;2022-10-16T00:55:05;100594.31;;;14.25;100.00
56084;BME280;41958;52.416;13.428;2022-10-16T00:57:31;100617.66;;;14.29;100.00
56084;BME280;41958;52.416;13.428;2022-10-16T00:59:56;100620.84;;;14.28;100.00
56084;BME280;41958;52.416;13.428;2022-10-16T01:02:22;100621.59;;;14.25;100.00
56084;BME280;41958;52.416;13.428;2022-10-16T01:04:50;100613.19;;;14.25;100.00
56084;BME280;41958;52.416;13.428;2022-10-16T01:07:36;100612.41;;;14.28;100.00
56084;BME280;41958;52.416;13.428;2022-10-16T01:12:50;100617.50;;;14.19;100.00
56084;BME280;41958;52.416;13.428;2022-10-16T01:15:38;100604.13;;;14.12;100.00
56084;BME280;41958;52.416;13.428;2022-10-16T01:18:14;100621.50;;;14.18;100.00
56084;BME280;41958;52.416;13.428;2022-10-16T01:20:58;100625.13;;;14.18;100.00
56084;BME280;41958;52.416;13.428;2022-10-16T01:29:25;100639.59;;;14.20;100.00
56084;BME280;41958;52.416;13.428;2022-10-16T01:31:57;100639.16;;;14.18;100.00
56084;BME280;41958;52.416;13.428;2022-10-16T01:34:51;100641.19;;;14.18;100.00
56084;BME280;41958;52.416;13.428;2022-10-16T01:37:29;100644.72;;;14.14;100.00
56084;BME280;41958;52.416;13.428;2022-10-16T01:39:59;100646.28;;;14.12;100.00
56084;BME280;41958;52.416;13.428;2022-10-16T01:42:31;100647.84;;;14.09;100.00
56084;BME280;41958;52.416;13.428;2022-10-16T01:45:00;100657.50;;;14.08;100.00
56084;BME280;41958;52.416;13.428;2022-10-16T01:47:27;100663.84;;;14.05;100.00
56084;BME280;41958;52.416;13.428;2022-10-16T01:49:53;100658.22;;;14.05;100.00
56084;BME280;41958;52.416;13.428;2022-10-16T01:52:23;100656.16;;;14.02;100.00
56084;BME280;41958;52.416;13.428;2022-10-16T01:54:52;100650.84;;;13.97;100.00
56084;BME280;41958;52.416;13.428;2022-10-16T01:57:21;100667.41;;;14.02;100.00
56084;BME280;41958;52.416;13.428;2022-10-16T01:59:52;100664.22;;;14.04;100.00
56084;BME280;41958;52.416;13.428;2022-10-16T02:02:20;100664.66;;;14.06;100.00
56084;BME280;41958;52.416;13.428;2022-10-16T02:04:51;100670.31;;;14.09;100.00
56084;BME280;41958;52.416;13.428;2022-10-16T02:07:17;100670.03;;;14.14;100.00
56084;BME280;41958;52.416;13.428;2022-10-16T02:09:42;100665.66;;;14.17;100.00
56084;BME280;41958;52.416;13.428;2022-10-16T02:12:23;100662.84;;;14.17;100.00
56084;BME280;41958;52.416;13.428;2022-10-16T02:14:50;100680.53;;;14.18;100.00
56084;BME280;41958;52.416;13.428;2022-10-16T02:17:17;100678.13;;;14.20;100.00
56084;BME280;41958;52.416;13.428;2022-10-16T02:19:44;100686.63;;;14.23;100.00
56084;BME280;41958;52.416;13.428;2022-10-16T02:22:15;100680.25;;;14.26;100.00
56084;BME280;41958;52.416;13.428;2022-10-16T02:24:51;100684.25;;;14.25;100.00
56084;BME280;41958;52.416;13.428;2022-10-16T02:27:33;100686.31;;;14.28;100.00
56084;BME280;41958;52.416;13.428;2022-10-16T02:30:14;100670.63;;;14.27;100.00
56084;BME280;41958;52.416;13.428;2022-10-16T02:32:46;100671.81;;;14.26;100.00
56084;BME280;41958;52.416;13.428;2022-10-16T02:35:13;100669.06;;;14.30;100.00
56084;BME280;41958;52.416;13.428;2022-10-16T02:37:40;100677.50;;;14.30;100.00
56084;BME280;41958;52.416;13.428;2022-10-16T02:40:06;100681.50;;;14.29;100.00
56084;BME280;41958;52.416;13.428;2022-10-16T02:42:37;100685.56;;;14.31;100.00
56084;BME280;41958;52.416;13.428;2022-10-16T02:45:04;100680.72;;;14.28;100.00
56084;BME280;41958;52.416;13.428;2022-10-16T02:47:29;100685.19;;;14.33;100.00
56084;BME280;41958;52.416;13.428;2022-10-16T02:49:55;100680.34;;;14.33;100.00
56084;BME280;41958;52.416;13.428;2022-10-16T02:52:20;100669.56;;;14.36;100.00
56084;BME280;41958;52.416;13.428;2022-10-16T02:54:45;100682.00;;;14.34;100.00
56084;BME280;41958;52.416;13.428;2022-10-16T02:57:10;100688.75;;;14.30;100.00
56084;BME280;41958;52.416;13.428;2022-10-16T02:59:36;100685.13;;;14.29;100.00
56084;BME280;41958;52.416;13.428;2022-10-16T03:02:02;100678.22;;;14.23;100.00
56084;BME280;41958;52.416;13.428;2022-10-16T03:04:27;100682.56;;;14.21;100.00
56084;BME280;41958;52.416;13.428;2022-10-16T03:06:52;100696.13;;;14.15;100.00
56084;BME280;41958;52.416;13.428;2022-10-16T03:09:17;100691.22;;;14.08;100.00
56084;BME280;41958;52.416;13.428;2022-10-16T03:11:43;100709.19;;;14.04;100.00
56084;BME280;41958;52.416;13.428;2022-10-16T03:14:08;100705.06;;;13.97;100.00
56084;BME280;41958;52.416;13.428;2022-10-16T03:16:33;100715.84;;;13.95;100.00
56084;BME280;41958;52.416;13.428;2022-10-16T03:18:58;100722.22;;;13.92;100.00
56084;BME280;41958;52.416;13.428;2022-10-16T03:21:24;100714.59;;;13.93;100.00
56084;BME280;41958;52.416;13.428;2022-10-16T03:23:49;100697.75;;;13.93;100.00
56084;BME280;41958;52.416;13.428;2022-10-16T03:26:15;100697.31;;;13.91;100.00
56084;BME280;41958;52.416;13.428;2022-10-16T03:28:40;100705.38;;;13.92;100.00
56084;BME280;41958;52.416;13.428;2022-10-16T03:31:05;100711.00;;;13.92;100.00
56084;BME280;41958;52.416;13.428;2022-10-16T03:33:30;100717.00;;;13.91;100.00
56084;BME280;41958;52.416;13.428;2022-10-16T03:35:56;100718.84;;;13.83;100.00
56084;BME280;41958;52.416;13.428;2022-10-16T03:38:21;100730.00;;;13.79;100.00
56084;BME280;41958;52.416;13.428;2022-10-16T03:40:47;100738.44;;;13.79;100.00
56084;BME280;41958;52.416;13.428;2022-10-16T03:43:12;100746.44;;;13.77;100.00
56084;BME280;41958;52.416;13.428;2022-10-16T03:45:37;100740.81;;;13.77;100.00
56084;BME280;41958;52.416;13.428;2022-10-16T03:48:03;100748.78;;;13.75;100.00
56084;BME280;41958;52.416;13.428;2022-10-16T03:50:29;100745.56;;;13.73;100.00
56084;BME280;41958;52.416;13.428;2022-10-16T03:52:54;100733.34;;;13.65;100.00
56084;BME280;41958;52.416;13.428;2022-10-16T03:55:19;100738.22;;;13.69;100.00
56084;BME280;41958;52.416;13.428;2022-10-16T03:57:44;100747.78;;;13.64;100.00
56084;BME280;41958;52.416;13.428;2022-10-16T04:00:10;100752.22;;;13.65;100.00
56084;BME280;41958;52.416;13.428;2022-10-16T04:02:36;100759.09;;;13.68;100.00
56084;BME280;41958;52.416;13.428;2022-10-16T04:05:01;100775.47;;;13.65;100.00
56084;BME280;41958;52.416;13.428;2022-10-16T04:07:26;100781.56;;;13.68;100.00
56084;BME280;41958;52.416;13.428;2022-10-16T04:09:52;100768.59;;;13.63;100.00
56084;BME280;41958;52.416;13.428;2022-10-16T04:12:17;100773.94;;;13.68;100.00
56084;BME280;41958;52.416;13.428;2022-10-16T04:14:42;100770.03;;;13.73;100.00
56084;BME280;41958;52.416;13.428;2022-10-16T04:17:07;100770.09;;;13.76;100.00
56084;BME280;41958;52.416;13.428;2022-10-16T04:19:33;100768.91;;;13.77;100.00
56084;BME280;41958;52.416;13.428;2022-10-16T04:21:58;100776.16;;;13.78;100.00
56084;BME280;41958;52.416;13.428;2022-10-16T04:24:23;100768.91;;;13.77;100.00
56084;BME280;41958;52.416;13.428;2022-10-16T04:26:48;100765.28;;;13.77;100.00
56084;BME280;41958;52.416;13.428;2022-10-16T04:29:14;100771.25;;;13.75;100.00
56084;BME280;41958;52.416;13.428;2022-10-16T04:31:39;100761.59;;;13.73;100.00
56084;BME280;41958;52.416;13.428;2022-10-16T04:34:04;100757.47;;;13.66;100.00
56084;BME280;41958;52.416;13.428;2022-10-16T04:36:29;100752.25;;;13.69;100.00
56084;BME280;41958;52.416;13.428;2022-10-16T04:38:55;100737.72;;;13.63;100.00
56084;BME280;41958;52.416;13.428;2022-10-16T04:41:21;100729.28;;;13.63;100.00
56084;BME280;41958;52.416;13.428;2022-10-16T04:43:46;100746.53;;;13.61;100.00
56084;BME280;41958;52.416;13.428;2022-10-16T04:46:11;100744.09;;;13.60;100.00
56084;BME280;41958;52.416;13.428;2022-10-16T04:48:36;100748.44;;;13.57;100.00
56084;BME280;41958;52.416;13.428;2022-10-16T04:51:02;100752.00;;;13.54;100.00
56084;BME280;41958;52.416;13.428;2022-10-16T04:53:27;100745.88;;;13.48;100.00
56084;BME280;41958;52.416;13.428;2022-10-16T04:55:52;100750.59;;;13.44;100.00
56084;BME280;41958;52.416;13.428;2022-10-16T04:58:17;100758.56;;;13.42;100.00
56084;BME280;41958;52.416;13.428;2022-10-16T05:00:44;100746.91;;;13.40;100.00
56084;BME280;41958;52.416;13.428;2022-10-16T05:03:09;100758.47;;;13.39;100.00
56084;BME280;41958;52.416;13.428;2022-10-16T05:05:35;100760.88;;;13.37;100.00
56084;BME280;41958;52.416;13.428;2022-10-16T05:08:01;100786.38;;;13.31;100.00
56084;BME280;41958;52.416;13.428;2022-10-16T05:10:27;100785.13;;;13.29;100.00
56084;BME280;41958;52.416;13.428;2022-10-16T05:12:53;100791.84;;;13.24;100.00
56084;BME280;41958;52.416;13.428;2022-10-16T05:15:18;100802.88;;;13.17;100.00
56084;BME280;41958;52.416;13.428;2022-10-16T05:17:44;100805.25;;;13.15;100.00
56084;BME280;41958;52.416;13.428;2022-10-16T05:20:09;100799.13;;;13.09;100.00
56084;BME280;41958;52.416;13.428;2022-10-16T05:22:34;100797.06;;;13.06;100.00
56084;BME280;41958;52.416;13.428;2022-10-16T05:25:00;100813.91;;;13.06;100.00
56084;BME280;41958;52.416;13.428;2022-10-16T05:27:25;100804.22;;;13.04;100.00
56084;BME280;41958;52.416;13.428;2022-10-16T05:29:50;100802.22;;;13.04;100.00
56084;BME280;41958;52.416;13.428;2022-10-16T05:32:17;100797.88;;;13.07;100.00
56084;BME280;41958;52.416;13.428;2022-10-16T05:34:43;100793.53;;;13.09;100.00
56084;BME280;41958;52.416;13.428;2022-10-16T05:37:09;100787.91;;;13.09;100.00
56084;BME280;41958;52.416;13.428;2022-10-16T05:39:34;100786.00;;;13.13;100.00
56084;BME280;41958;52.416;13.428;2022-10-16T05:42:01;100798.91;;;13.18;100.00
56084;BME280;41958;52.416;13.428;2022-10-16T05:44:27;100785.34;;;13.20;100.00
56084;BME280;41958;52.416;13.428;2022-10-16T05:46:52;100797.47;;;13.24;100.00
56084;BME280;41958;52.416;13.428;2022-10-16T05:49:17;100809.47;;;13.25;100.00
56084;BME280;41958;52.416;13.428;2022-10-16T05:51:42;100813.94;;;13.26;100.00
56084;BME280;41958;52.416;13.428;2022-10-16T05:54:08;100811.50;;;13.24;100.00
56084;BME280;41958;52.416;13.428;2022-10-16T05:56:33;100814.22;;;13.21;100.00
56084;BME280;41958;52.416;13.428;2022-10-16T05:59:06;100814.22;;;13.21;100.00
56084;BME280;41958;52.416;13.428;2022-10-16T06:01:31;100809.47;;;13.25;100.00
56084;BME280;41958;52.416;13.428;2022-10-16T06:03:57;100811.13;;;13.26;100.00
56084;BME280;41958;52.416;13.428;2022-10-16T06:06:25;100806.31;;;13.26;100.00
56084;BME280;41958;52.416;13.428;2022-10-16T06:08:52;100808.47;;;13.33;100.00
56084;BME280;41958;52.416;13.428;2022-10-16T06:11:20;100816.63;;;13.38;100.00
56084;BME280;41958;52.416;13.428;2022-10-16T06:13:49;100821.59;;;13.45;100.00
56084;BME280;41958;52.416;13.428;2022-10-16T06:16:15;100825.75;;;13.51;100.00
56084;BME280;41958;52.416;13.428;2022-10-16T06:18:40;100823.47;;;13.57;100.00
56084;BME280;41958;52.416;13.428;2022-10-16T06:21:11;100816.34;;;13.63;100.00
56084;BME280;41958;52.416;13.428;2022-10-16T06:23:37;100826.50;;;13.68;100.00
56084;BME280;41958;52.416;13.428;2022-10-16T06:26:10;100828.63;;;13.74;100.00
56084;BME280;41958;52.416;13.428;2022-10-16T06:28:36;100824.72;;;13.79;100.00
56084;BME280;41958;52.416;13.428;2022-10-16T06:31:03;100822.41;;;13.85;100.00
56084;BME280;41958;52.416;13.428;2022-10-16T06:33:29;100821.00;;;13.94;100.00
56084;BME280;41958;52.416;13.428;2022-10-16T06:36:00;100832.59;;;13.93;100.00
56084;BME280;41958;52.416;13.428;2022-10-16T06:38:25;100838.69;;;13.95;100.00
56084;BME280;41958;52.416;13.428;2022-10-16T06:40:53;100843.91;;;13.96;100.00
56084;BME280;41958;52.416;13.428;2022-10-16T06:43:18;100851.19;;;13.97;100.00
56084;BME280;41958;52.416;13.428;2022-10-16T06:45:50;100855.28;;;14.04;100.00
56084;BME280;41958;52.416;13.428;2022-10-16T06:48:16;100864.22;;;14.09;100.00
56084;BME280;41958;52.416;13.428;2022-10-16T06:50:41;100869.94;;;14.13;100.00
56084;BME280;41958;52.416;13.428;2022-10-16T06:53:06;100865.94;;;14.14;100.00
56084;BME280;41958;52.416;13.428;2022-10-16T06:55:31;100864.03;;;14.18;100.00
56084;BME280;41958;52.416;13.428;2022-10-16T06:57:56;100870.53;;;14.22;100.00
56084;BME280;41958;52.416;13.428;2022-10-16T07:00:22;100876.28;;;14.29;100.00
56084;BME280;41958;52.416;13.428;2022-10-16T07:02:47;100868.28;;;14.31;100.00
56084;BME280;41958;52.416;13.428;2022-10-16T07:05:12;100864.22;;;14.29;100.00
56084;BME280;41958;52.416;13.428;2022-10-16T07:07:37;100871.09;;;14.31;100.00
56084;BME280;41958;52.416;13.428;2022-10-16T07:10:03;100870.84;;;14.40;100.00
56084;BME280;41958;52.416;13.428;2022-10-16T07:12:28;100884.63;;;14.65;100.00
56084;BME280;41958;52.416;13.428;2022-10-16T07:14:53;100885.78;;;14.87;100.00
56084;BME280;41958;52.416;13.428;2022-10-16T07:17:21;100904.88;;;15.24;100.00
56084;BME280;41958;52.416;13.428;2022-10-16T07:19:46;100898.06;;;15.52;100.00
56084;BME280;41958;52.416;13.428;2022-10-16T07:22:11;100884.63;;;15.42;100.00
56084;BME280;41958;52.416;13.428;2022-10-16T07:24:36;100882.97;;;15.67;100.00
56084;BME280;41958;52.416;13.428;2022-10-16T07:27:02;100888.41;;;15.80;100.00
56084;BME280;41958;52.416;13.428;2022-10-16T07:29:27;100901.28;;;16.11;100.00
56084;BME280;41958;52.416;13.428;2022-10-16T07:31:52;100902.50;;;16.48;100.00
56084;BME280;41958;52.416;13.428;2022-10-16T07:34:19;100904.38;;;16.74;100.00
56084;BME280;41958;52.416;13.428;2022-10-16T07:36:47;100901.16;;;16.76;100.00
56084;BME280;41958;52.416;13.428;2022-10-16T07:39:13;100880.88;;;16.63;100.00
56084;BME280;41958;52.416;13.428;2022-10-16T07:41:38;100890.47;;;16.51;100.00
56084;BME280;41958;52.416;13.428;2022-10-16T07:44:03;100903.44;;;16.63;100.00
56084;BME280;41958;52.416;13.428;2022-10-16T07:46:29;100900.13;;;16.50;100.00
56084;BME280;41958;52.416;13.428;2022-10-16T07:48:55;100892.06;;;16.52;100.00
56084;BME280;41958;52.416;13.428;2022-10-16T07:51:22;100903.28;;;16.45;100.00
56084;BME280;41958;52.416;13.428;2022-10-16T07:53:48;100910.16;;;16.47;100.00
56084;BME280;41958;52.416;13.428;2022-10-16T07:56:15;100907.28;;;16.40;100.00
56084;BME280;41958;52.416;13.428;2022-10-16T07:58:40;100899.22;;;16.42;100.00
56084;BME280;41958;52.416;13.428;2022-10-16T08:01:10;100896.91;;;16.51;100.00
56084;BME280;41958;52.416;13.428;2022-10-16T08:03:36;100901.75;;;16.55;100.00
56084;BME280;41958;52.416;13.428;2022-10-16T08:06:02;100913.13;;;16.62;100.00
56084;BME280;41958;52.416;13.428;2022-10-16T08:08:28;100913.88;;;16.55;100.00
56084;BME280;41958;52.416;13.428;2022-10-16T08:10:54;100920.63;;;16.47;100.00
56084;BME280;41958;52.416;13.428;2022-10-16T08:13:19;100920.72;;;16.54;100.00
56084;BME280;41958;52.416;13.428;2022-10-16T08:15:45;100930.13;;;16.69;100.00
56084;BME280;41958;52.416;13.428;2022-10-16T08:18:12;100932.88;;;16.62;100.00
56084;BME280;41958;52.416;13.428;2022-10-16T08:20:38;100939.44;;;16.73;100.00
56084;BME280;41958;52.416;13.428;2022-10-16T08:23:04;100935.94;;;16.83;100.00
56084;BME280;41958;52.416;13.428;2022-10-16T08:25:30;100939.25;;;16.93;100.00
56084;BME280;41958;52.416;13.428;2022-10-16T08:27:55;100940.88;;;16.94;100.00
56084;BME280;41958;52.416;13.428;2022-10-16T08:30:22;100943.00;;;17.08;100.00
56084;BME280;41958;52.416;13.428;2022-10-16T08:32:48;100927.78;;;17.19;100.00
56084;BME280;41958;52.416;13.428;2022-10-16T08:35:13;100933.97;;;17.36;100.00
56084;BME280;41958;52.416;13.428;2022-10-16T08:37:39;100921.47;;;17.37;100.00
56084;BME280;41958;52.416;13.428;2022-10-16T08:40:06;100940.97;;;17.53;100.00
56084;BME280;41958;52.416;13.428;2022-10-16T08:42:53;100942.59;;;17.54;100.00
56084;BME280;41958;52.416;13.428;2022-10-16T08:48:43;100938.13;;;17.53;99.86
56084;BME280;41958;52.416;13.428;2022-10-16T08:51:12;100934.53;;;17.56;97.74
56084;BME280;41958;52.416;13.428;2022-10-16T08:53:49;100939.00;;;17.61;97.77
56084;BME280;41958;52.416;13.428;2022-10-16T08:56:14;100945.81;;;17.56;97.00
56084;BME280;41958;52.416;13.428;2022-10-16T08:58:40;100951.03;;;17.50;97.26
56084;BME280;41958;52.416;13.428;2022-10-16T09:01:12;100948.97;;;17.44;96.78
56084;BME280;41958;52.416;13.428;2022-10-16T09:03:54;100954.19;;;17.38;97.75
56084;BME280;41958;52.416;13.428;2022-10-16T09:06:37;100955.81;;;17.39;97.08
56084;BME280;41958;52.416;13.428;2022-10-16T09:09:35;100966.44;;;17.57;95.76
56084;BME280;41958;52.416;13.428;2022-10-16T09:12:15;100966.94;;;17.77;95.02
56084;BME280;41958;52.416;13.428;2022-10-16T09:14:54;100971.59;;;18.03;93.10
56084;BME280;41958;52.416;13.428;2022-10-16T09:17:32;100982.31;;;18.57;91.31
56084;BME280;41958;52.416;13.428;2022-10-16T09:22:38;100985.56;;;18.59;90.20
56084;BME280;41958;52.416;13.428;2022-10-16T09:25:15;100985.56;;;18.66;89.63
56084;BME280;41958;52.416;13.428;2022-10-16T09:27:42;100983.03;;;18.32;89.45
56084;BME280;41958;52.416;13.428;2022-10-16T09:30:20;100974.13;;;18.26;90.32
56084;BME280;41958;52.416;13.428;2022-10-16T09:32:48;100980.56;;;18.19;90.41
56084;BME280;41958;52.416;13.428;2022-10-16T09:35:17;100972.88;;;18.20;90.48
56084;BME280;41958;52.416;13.428;2022-10-16T09:37:44;100976.56;;;18.35;90.03
56084;BME280;41958;52.416;13.428;2022-10-16T09:40:30;100977.38;;;18.32;89.60
56084;BME280;41958;52.416;13.428;2022-10-16T09:43:08;100989.88;;;18.31;89.53
56084;BME280;41958;52.416;13.428;2022-10-16T09:45:37;100993.22;;;18.51;90.31
56084;BME280;41958;52.416;13.428;2022-10-16T09:48:11;100996.06;;;18.62;88.67
56084;BME280;41958;52.416;13.428;2022-10-16T09:50:37;101002.16;;;18.60;88.72
56084;BME280;41958;52.416;13.428;2022-10-16T09:53:13;101003.31;;;18.56;89.13
56084;BME280;41958;52.416;13.428;2022-10-16T09:55:50;101007.25;;;18.26;89.01
56084;BME280;41958;52.416;13.428;2022-10-16T09:58:15;101000.69;;;18.11;89.08
56084;BME280;41958;52.416;13.428;2022-10-16T10:00:42;101003.97;;;18.13;89.35
56084;BME280;41958;52.416;13.428;2022-10-16T10:03:30;101003.22;;;18.23;89.25
56084;BME280;41958;52.416;13.428;2022-10-16T10:05:58;101013.06;;;18.62;88.81
56084;BME280;41958;52.416;13.428;2022-10-16T10:08:23;101021.59;;;18.73;86.34
56084;BME280;41958;52.416;13.428;2022-10-16T10:10:49;101033.34;;;18.75;86.60
56084;BME280;41958;52.416;13.428;2022-10-16T10:13:24;101029.75;;;18.92;84.32
56084;BME280;41958;52.416;13.428;2022-10-16T10:15:51;101040.38;;;19.28;82.36
56084;BME280;41958;52.416;13.428;2022-10-16T10:18:18;101036.69;;;19.09;82.26
56084;BME280;41958;52.416;13.428;2022-10-16T10:20:45;101035.06;;;19.08;82.61
56084;BME280;41958;52.416;13.428;2022-10-16T10:23:21;101024.56;;;19.09;81.79
56084;BME280;41958;52.416;13.428;2022-10-16T10:25:54;101021.34;;;19.32;82.22
56084;BME280;41958;52.416;13.428;2022-10-16T10:29:44;101034.25;;;19.08;80.31
56084;BME280;41958;52.416;13.428;2022-10-16T10:34:42;101034.25;;;19.08;80.64
56084;BME280;41958;52.416;13.428;2022-10-16T10:37:35;101022.09;;;19.07;80.35
56084;BME280;41958;52.416;13.428;2022-10-16T10:40:23;101031.03;;;19.09;77.82
56084;BME280;41958;52.416;13.428;2022-10-16T10:42:59;101033.47;;;19.14;77.89
56084;BME280;41958;52.416;13.428;2022-10-16T10:45:43;101036.31;;;19.21;77.64
56084;BME280;41958;52.416;13.428;2022-10-16T10:51:13;101053.69;;;19.09;77.24
56084;BME280;41958;52.416;13.428;2022-10-16T10:53:48;101034.25;;;19.00;76.20
56084;BME280;41958;52.416;13.428;2022-10-16T10:59:22;101051.28;;;19.33;76.48
56084;BME280;41958;52.416;13.428;2022-10-16T11:02:01;101053.75;;;19.45;76.72
56084;BME280;41958;52.416;13.428;2022-10-16T11:07:32;101046.84;;;19.28;76.08
56084;BME280;41958;52.416;13.428;2022-10-16T11:10:05;101049.25;;;19.30;74.82
56084;BME280;41958;52.416;13.428;2022-10-16T11:12:38;101046.84;;;19.43;74.44
56084;BME280;41958;52.416;13.428;2022-10-16T11:15:15;101046.06;;;19.57;73.57
56084;BME280;41958;52.416;13.428;2022-10-16T11:17:49;101051.72;;;19.78;72.36
56084;BME280;41958;52.416;13.428;2022-10-16T11:20:19;101062.28;;;19.85;72.36
56084;BME280;41958;52.416;13.428;2022-10-16T11:22:51;101048.47;;;19.87;70.85
56084;BME280;41958;52.416;13.428;2022-10-16T11:25:22;101046.00;;;20.18;72.40
56084;BME280;41958;52.416;13.428;2022-10-16T11:27:56;101043.63;;;19.98;70.16
56084;BME280;41958;52.416;13.428;2022-10-16T11:30:25;101053.34;;;20.12;71.41
56084;BME280;41958;52.416;13.428;2022-10-16T11:38:43;101053.75;;;20.07;69.74
56084;BME280;41958;52.416;13.428;2022-10-16T11:41:32;101050.91;;;19.99;69.95
56084;BME280;41958;52.416;13.428;2022-10-16T11:44:09;101051.31;;;19.91;70.87
56084;BME280;41958;52.416;13.428;2022-10-16T11:46:43;101061.03;;;19.79;68.71
56084;BME280;41958;52.416;13.428;2022-10-16T11:49:22;101043.63;;;19.77;69.29
56084;BME280;41958;52.416;13.428;2022-10-16T11:52:10;101051.31;;;19.73;69.02
56084;BME280;41958;52.416;13.428;2022-10-16T11:57:16;101054.53;;;19.75;69.74
56084;BME280;41958;52.416;13.428;2022-10-16T11:59:48;101046.88;;;19.86;68.78
56084;BME280;41958;52.416;13.428;2022-10-16T12:05:01;101054.13;;;19.76;66.84
56084;BME280;41958;52.416;13.428;2022-10-16T12:07:36;101059.03;;;19.86;65.68
56084;BME280;41958;52.416;13.428;2022-10-16T12:10:17;101065.94;;;19.93;66.78
56084;BME280;41958;52.416;13.428;2022-10-16T12:12:43;101065.50;;;19.98;64.01
56084;BME280;41958;52.416;13.428;2022-10-16T12:15:29;101059.03;;;19.86;63.10
56084;BME280;41958;52.416;13.428;2022-10-16T12:17:55;101071.16;;;19.76;64.93
56084;BME280;41958;52.416;13.428;2022-10-16T12:20:29;101070.75;;;19.74;63.84
56084;BME280;41958;52.416;13.428;2022-10-16T12:25:30;101080.88;;;19.68;65.58
56084;BME280;41958;52.416;13.428;2022-10-16T12:27:57;101079.28;;;19.81;65.18
56084;BME280;41958;52.416;13.428;2022-10-16T12:30:24;101069.56;;;19.82;67.00
56084;BME280;41958;52.416;13.428;2022-10-16T12:32:56;101076.06;;;19.90;64.32
56084;BME280;41958;52.416;13.428;2022-10-16T12:35:24;101081.28;;;19.95;63.64
56084;BME280;41958;52.416;13.428;2022-10-16T12:37:51;101076.03;;;20.12;64.59
56084;BME280;41958;52.416;13.428;2022-10-16T12:40:26;101077.63;;;20.16;65.05
56084;BME280;41958;52.416;13.428;2022-10-16T12:42:51;101073.59;;;20.17;64.52
56084;BME280;41958;52.416;13.428;2022-10-16T12:45:30;101076.41;;;20.25;65.45
56084;BME280;41958;52.416;13.428;2022-10-16T12:47:58;101079.66;;;20.27;65.29
56084;BME280;41958;52.416;13.428;2022-10-16T12:50:37;101087.31;;;20.37;64.77
56084;BME280;41958;52.416;13.428;2022-10-16T12:53:17;101082.44;;;20.41;62.74
56084;BME280;41958;52.416;13.428;2022-10-16T12:55:55;101088.53;;;20.25;62.26
56084;BME280;41958;52.416;13.428;2022-10-16T12:58:34;101077.63;;;20.20;63.27
56084;BME280;41958;52.416;13.428;2022-10-16T13:01:12;101091.34;;;20.36;63.21
56084;BME280;41958;52.416;13.428;2022-10-16T13:06:36;101089.31;;;20.47;62.49
56084;BME280;41958;52.416;13.428;2022-10-16T13:09:17;101099.41;;;20.70;64.15
56084;BME280;41958;52.416;13.428;2022-10-16T13:12:23;101096.94;;;20.83;58.43
56084;BME280;41958;52.416;13.428;2022-10-16T13:18:16;101117.34;;;20.31;62.08
56084;BME280;41958;52.416;13.428;2022-10-16T13:21:00;101127.09;;;20.23;62.62
56084;BME280;41958;52.416;13.428;2022-10-16T13:23:58;101131.97;;;20.18;61.28
56084;BME280;41958;52.416;13.428;2022-10-16T13:26:42;101123.84;;;20.10;61.49
56084;BME280;41958;52.416;13.428;2022-10-16T13:29:10;101131.16;;;20.11;62.14
56084;BME280;41958;52.416;13.428;2022-10-16T13:31:38;101134.00;;;20.11;61.24